»·PEaware :: N901TX KLBF-KNFW

N901TX :: KLBF-KNFW

FLIGHT INFORMATION

Flight Status: Arrived
Operator: Privately registered:
United States
More flights under this callsign
Pilot: Andrew J. (13363)
Aircraft: SOCATA TBM-900
(TBM9)
More flights by this aircraft type
Origin: KLBF North Platte Regl-Bird
United States
Destination: KNFW Fort Worth NAS Jrb
United States
More flights between these airports :: More routes between these airports
Route: LBF HLC UKW MOTZA8
File this flight plan on PilotEdge
Remarks: PBN / D2 NAV / RNVD1E2A1 DOF / 181218 REG / N900SB EET / KZKC0035 KZFW0113 PER / B RMK / TCAS SIMBRIEF
Altitude:
(Current/Filed)
29,000ft
Speed:
(Current/Filed)
315kts
Departed: 18-Dec-18 11:20 AM
Arrived: 18-Dec-18 01:27 PM
Distance/Time
Traveled:
524nm/2:06
Distance/Time
To Go:
Arrived

Flight Plot

Page will automatically refresh every two minutes.

Flight plan parsing failed; only flown route is shown


Map Options




Map Legend


Flown Route
Filed Route
Departure Airport
Arrival Airport
Navaid (VOR, NDB)
Fix

Horizontal Profiles

Position Reports

Time Latitude Longitude Heading Altitude Ground
Speed
18-Dec-18 11:15 41.132240 -100.695958 90 2775ft 0kts
18-Dec-18 11:16 41.131448 -100.695537 181 2775ft 8kts
18-Dec-18 11:16 41.130282 -100.693990 174 2775ft 10kts
18-Dec-18 11:18 41.123491 -100.694191 181 2772ft 22kts
18-Dec-18 11:19 41.121053 -100.693151 14 2772ft 6kts
18-Dec-18 11:19 41.126146 -100.693030 0 2772ft 88kts
18-Dec-18 11:20 41.147359 -100.712603 243 4218ft 137kts
18-Dec-18 11:21 41.111560 -100.728698 194 6196ft 146kts
18-Dec-18 11:22 41.069644 -100.737227 187 7862ft 159kts
18-Dec-18 11:24 41.018268 -100.738098 169 9732ft 169kts
18-Dec-18 11:24 40.979890 -100.726525 169 11456ft 168kts
18-Dec-18 11:25 40.936205 -100.713485 170 13650ft 163kts
18-Dec-18 11:26 40.891465 -100.700155 170 15649ft 169kts
18-Dec-18 11:27 40.845687 -100.686537 169 17631ft 172kts
18-Dec-18 11:28 40.798403 -100.672485 169 19404ft 177kts
18-Dec-18 11:29 40.749822 -100.658073 170 21022ft 182kts
18-Dec-18 11:30 40.700190 -100.643372 170 22514ft 186kts
18-Dec-18 11:31 40.649428 -100.628357 170 23868ft 189kts
18-Dec-18 11:32 40.597831 -100.613105 170 25099ft 192kts
18-Dec-18 11:33 40.545028 -100.597552 170 26483ft 198kts
18-Dec-18 11:34 40.490470 -100.581496 170 27828ft 211kts
18-Dec-18 11:35 40.431152 -100.564086 170 28887ft 226kts
18-Dec-18 11:36 40.363976 -100.544400 169 28974ft 267kts
18-Dec-18 11:37 40.288605 -100.522322 169 28999ft 287kts
18-Dec-18 11:38 40.209469 -100.499205 169 28994ft 296kts
18-Dec-18 11:39 40.128578 -100.475640 169 28993ft 300kts
18-Dec-18 11:40 40.047931 -100.452200 169 28994ft 295kts
18-Dec-18 11:41 39.968818 -100.429280 169 28957ft 292kts
18-Dec-18 11:42 39.890897 -100.406731 169 28980ft 285kts
18-Dec-18 11:43 39.814130 -100.384588 169 28982ft 282kts
18-Dec-18 11:44 39.737967 -100.362665 169 28983ft 280kts
18-Dec-18 11:45 39.662286 -100.340928 170 28980ft 280kts
18-Dec-18 11:46 39.586501 -100.319212 170 28976ft 279kts
18-Dec-18 11:47 39.510759 -100.297557 170 28972ft 279kts
18-Dec-18 11:48 39.435145 -100.275981 170 28971ft 279kts
18-Dec-18 11:49 39.359360 -100.254415 170 28971ft 279kts
18-Dec-18 11:50 39.283695 -100.232923 170 28971ft 279kts
18-Dec-18 11:51 39.209724 -100.203499 163 28971ft 280kts
18-Dec-18 11:52 39.136384 -100.170268 163 28989ft 280kts
18-Dec-18 11:53 39.062972 -100.137024 163 28989ft 281kts
18-Dec-18 11:54 38.989495 -100.103813 163 29051ft 280kts
18-Dec-18 11:55 38.915464 -100.070439 163 28988ft 281kts
18-Dec-18 11:56 38.841968 -100.037360 164 28967ft 282kts
18-Dec-18 11:57 38.768181 -100.004246 164 29026ft 280kts
18-Dec-18 11:58 38.693916 -99.970977 164 28966ft 283kts
18-Dec-18 11:59 38.620057 -99.937976 164 28973ft 281kts
18-Dec-18 12:00 38.546349 -99.905108 164 28976ft 280kts
18-Dec-18 12:01 38.472953 -99.872449 164 28979ft 280kts
18-Dec-18 12:02 38.399651 -99.839901 164 28981ft 280kts
18-Dec-18 12:03 38.326137 -99.807329 164 28982ft 280kts
18-Dec-18 12:04 38.252762 -99.774888 164 28981ft 280kts
18-Dec-18 12:05 38.179217 -99.742442 164 28981ft 280kts
18-Dec-18 12:06 38.105859 -99.710147 164 28981ft 280kts
18-Dec-18 12:07 38.032228 -99.677801 164 28963ft 280kts
18-Dec-18 12:08 37.958576 -99.645505 164 28960ft 281kts
18-Dec-18 12:09 37.885134 -99.613389 164 28965ft 280kts
18-Dec-18 12:10 37.811437 -99.581224 164 28965ft 280kts
18-Dec-18 12:11 37.737999 -99.549235 164 28947ft 280kts
18-Dec-18 12:12 37.664313 -99.517206 164 28947ft 280kts
18-Dec-18 12:13 37.591024 -99.485415 164 28947ft 279kts
18-Dec-18 12:14 37.517669 -99.453663 164 28947ft 279kts
18-Dec-18 12:15 37.444557 -99.422082 164 28947ft 278kts
18-Dec-18 12:16 37.371422 -99.390546 164 28947ft 278kts
18-Dec-18 12:17 37.298337 -99.359118 164 28947ft 278kts
18-Dec-18 12:18 37.225818 -99.327986 165 28954ft 276kts
18-Dec-18 12:19 37.153480 -99.296991 165 28975ft 275kts
18-Dec-18 12:20 37.081332 -99.266148 165 28988ft 274kts
18-Dec-18 12:21 37.009383 -99.235448 165 28988ft 274kts
18-Dec-18 12:22 36.937266 -99.204735 165 29000ft 274kts
18-Dec-18 12:23 36.865554 -99.174254 165 29007ft 273kts
18-Dec-18 12:24 36.793736 -99.143796 165 29008ft 273kts
18-Dec-18 12:25 36.721693 -99.113303 165 29006ft 273kts
18-Dec-18 12:26 36.650014 -99.083019 165 28992ft 273kts
18-Dec-18 12:27 36.578162 -99.052729 165 28994ft 273kts
18-Dec-18 12:28 36.506609 -99.022616 165 28999ft 272kts
18-Dec-18 12:29 36.435164 -98.992620 165 29003ft 273kts
18-Dec-18 12:30 36.364620 -98.963026 165 29004ft 263kts
18-Dec-18 12:31 36.296049 -98.934331 165 29009ft 259kts
18-Dec-18 12:32 36.228297 -98.906048 165 29013ft 256kts
18-Dec-18 12:33 36.160954 -98.877977 165 29016ft 255kts
18-Dec-18 12:34 36.093791 -98.850031 165 29016ft 255kts
18-Dec-18 12:35 36.026790 -98.822197 166 29016ft 254kts
18-Dec-18 12:36 35.959942 -98.794478 166 29012ft 254kts
18-Dec-18 12:37 35.893580 -98.767015 166 29040ft 251kts
18-Dec-18 12:38 35.827382 -98.739673 166 29043ft 252kts
18-Dec-18 12:39 35.761012 -98.712297 166 29044ft 252kts
18-Dec-18 12:40 35.694662 -98.684983 166 29047ft 252kts
18-Dec-18 12:41 35.628276 -98.657705 166 29030ft 252kts
18-Dec-18 12:42 35.561839 -98.630450 166 29029ft 252kts
18-Dec-18 12:43 35.495450 -98.603262 166 29028ft 252kts
18-Dec-18 12:44 35.429108 -98.576140 166 29024ft 252kts
18-Dec-18 12:45 35.362751 -98.549060 166 29019ft 252kts
18-Dec-18 12:46 35.296651 -98.522122 166 29019ft 251kts
18-Dec-18 12:47 35.230327 -98.495157 166 29018ft 251kts
18-Dec-18 12:48 35.164218 -98.468310 166 29018ft 250kts
18-Dec-18 12:49 35.098454 -98.441664 166 29017ft 250kts
18-Dec-18 12:50 35.032539 -98.414991 167 29017ft 249kts
18-Dec-18 12:51 34.966775 -98.388427 167 29004ft 250kts
18-Dec-18 12:52 34.901236 -98.361995 167 29057ft 247kts
18-Dec-18 12:53 34.836050 -98.335762 167 29059ft 248kts
18-Dec-18 12:54 34.770844 -98.309558 168 29060ft 247kts
18-Dec-18 12:55 34.705710 -98.283422 168 29064ft 247kts
18-Dec-18 12:56 34.640732 -98.257389 168 29046ft 247kts
18-Dec-18 12:57 34.575637 -98.231367 168 29044ft 246kts
18-Dec-18 12:58 34.510593 -98.205398 168 29044ft 246kts
18-Dec-18 12:59 34.446014 -98.179659 168 29044ft 245kts
18-Dec-18 13:00 34.380806 -98.153764 168 28584ft 261kts
18-Dec-18 13:01 34.309044 -98.125211 167 27616ft 272kts
18-Dec-18 13:02 34.238971 -98.097403 168 27071ft 260kts
18-Dec-18 13:03 34.171073 -98.070538 168 26544ft 255kts
18-Dec-18 13:04 34.103858 -98.043991 167 26024ft 254kts
18-Dec-18 13:05 34.035601 -98.017098 167 24935ft 273kts
18-Dec-18 13:07 33.960375 -97.987470 166 23156ft 299kts
18-Dec-18 13:08 33.885590 -97.958035 165 21413ft 314kts
18-Dec-18 13:09 33.811344 -97.928904 165 19674ft 319kts
18-Dec-18 13:10 33.726698 -97.895762 165 17684ft 320kts
18-Dec-18 13:11 33.643479 -97.863230 165 15786ft 310kts
18-Dec-18 13:12 33.563119 -97.831892 165 14066ft 300kts
18-Dec-18 13:13 33.484235 -97.804414 167 12592ft 290kts
18-Dec-18 13:14 33.407319 -97.779327 167 11296ft 282kts
18-Dec-18 13:15 33.331737 -97.754716 166 10120ft 278kts
18-Dec-18 13:16 33.258066 -97.727852 146 9215ft 276kts
18-Dec-18 13:17 33.198548 -97.675305 146 9214ft 260kts
18-Dec-18 13:18 33.140936 -97.624376 145 9207ft 260kts
18-Dec-18 13:19 33.098694 -97.556478 111 8165ft 265kts
18-Dec-18 13:20 33.075930 -97.473707 111 7042ft 255kts
18-Dec-18 13:21 33.025469 -97.439151 179 6152ft 226kts
18-Dec-18 13:22 32.963042 -97.439510 180 4137ft 222kts
18-Dec-18 13:23 32.905251 -97.440123 180 2988ft 202kts
18-Dec-18 13:24 32.854946 -97.440616 179 2008ft 156kts
18-Dec-18 13:25 32.821623 -97.440974 177 1398ft 105kts
18-Dec-18 13:26 32.793632 -97.441290 179 832ft 97kts
18-Dec-18 13:26 32.777139 -97.441471 180 639ft 28kts
18-Dec-18 13:28 32.776294 -97.441456 174 638ft 0kts
18-Dec-18 13:29 32.776294 -97.441456 174 638ft 0kts
18-Dec-18 13:30 32.776294 -97.441456 174 638ft 0kts
18-Dec-18 13:30 32.776294 -97.441456 174 638ft 0kts
18-Dec-18 13:32 32.776294 -97.441456 174 638ft 0kts
18-Dec-18 13:32 32.776294 -97.441456 174 638ft 0kts
18-Dec-18 13:33 32.776294 -97.441456 174 638ft 0kts
18-Dec-18 13:34 32.776294 -97.441456 174 638ft 0kts
18-Dec-18 13:35 32.776294 -97.441456 174 638ft 0kts
18-Dec-18 13:36 32.776294 -97.441456 174 638ft 0kts
18-Dec-18 13:37 32.776294 -97.441456 174 638ft 0kts
18-Dec-18 13:38 32.776294 -97.441456 174 638ft 0kts
18-Dec-18 13:39 32.776294 -97.441456 174 638ft 0kts
18-Dec-18 13:40 32.776294 -97.441456 174 638ft 0kts

Navigation Log

Ident Type
Flight plan parsing failed, navigation log unavailable